Time,TemperatureF,DewpointF,PressureIn,WindDirection,WindDirectionDegrees,WindSpeedMPH,WindSpeedGustMPH,Humidity,HourlyPrecipIn,Conditions,Clouds,dailyrainin,SoftwareType,DateUTC
2013-06-20 00:12:00,65.0,60.0,30.19,ESE,103,0.0,-999.0,84,-99.99,,,0.00,weatherlink.com 1.10,2013-06-20 04:12:00,
2013-06-20 00:27:00,65.1,60.0,30.20,ESE,103,0.0,-999.0,84,-99.99,,,0.00,weatherlink.com 1.10,2013-06-20 04:27:00,
2013-06-20 00:42:00,65.1,60.0,30.20,ESE,103,0.0,-999.0,84,-99.99,,,0.00,weatherlink.com 1.10,2013-06-20 04:42:00,
2013-06-20 00:57:00,64.7,60.0,30.20,ESE,103,0.0,-999.0,84,-99.99,,,0.00,weatherlink.com 1.10,2013-06-20 04:57:00,
2013-06-20 01:12:00,64.5,60.0,30.20,ESE,103,0.0,-999.0,84,-99.99,,,0.00,weatherlink.com 1.10,2013-06-20 05:12:00,
2013-06-20 01:27:00,64.8,60.0,30.20,ESE,103,0.0,-999.0,84,-99.99,,,0.00,weatherlink.com 1.10,2013-06-20 05:27:00,
2013-06-20 01:42:00,64.6,60.0,30.20,ESE,103,0.0,-999.0,85,-99.99,,,0.00,weatherlink.com 1.10,2013-06-20 05:42:00,
2013-06-20 01:57:00,65.0,60.0,30.20,ESE,103,0.0,-999.0,85,-99.99,,,0.00,weatherlink.com 1.10,2013-06-20 05:57:00,
2013-06-20 02:13:00,64.2,59.0,30.20,ESE,103,0.0,-999.0,84,-99.99,,,0.00,weatherlink.com 1.10,2013-06-20 06:13:00,
2013-06-20 02:28:00,64.0,60.0,30.19,ESE,103,0.0,-999.0,85,-99.99,,,0.00,weatherlink.com 1.10,2013-06-20 06:28:00,
2013-06-20 02:43:00,63.9,59.0,30.19,ESE,103,0.0,-999.0,85,-99.99,,,0.00,weatherlink.com 1.10,2013-06-20 06:43:00,
2013-06-20 02:58:00,63.5,59.0,30.19,ESE,103,0.0,-999.0,85,-99.99,,,0.00,weatherlink.com 1.10,2013-06-20 06:58:00,
2013-06-20 03:13:00,63.3,59.0,30.19,ESE,103,0.0,-999.0,85,-99.99,,,0.00,weatherlink.com 1.10,2013-06-20 07:13:00,
2013-06-20 03:28:00,63.2,59.0,30.20,ESE,103,0.0,-999.0,85,-99.99,,,0.00,weatherlink.com 1.10,2013-06-20 07:28:00,
2013-06-20 03:43:00,62.9,58.0,30.21,ESE,103,0.0,-999.0,85,-99.99,,,0.00,weatherlink.com 1.10,2013-06-20 07:43:00,
2013-06-20 03:58:00,63.3,59.0,30.21,ESE,103,0.0,-999.0,85,-99.99,,,0.00,weatherlink.com 1.10,2013-06-20 07:58:00,
2013-06-20 04:13:00,63.3,59.0,30.21,ESE,103,0.0,-999.0,85,-99.99,,,0.00,weatherlink.com 1.10,2013-06-20 08:13:00,
2013-06-20 04:28:00,63.3,59.0,30.21,ESE,103,0.0,-999.0,85,-99.99,,,0.00,weatherlink.com 1.10,2013-06-20 08:28:00,
2013-06-20 04:43:00,63.2,59.0,30.21,ESE,103,0.0,-999.0,85,-99.99,,,0.00,weatherlink.com 1.10,2013-06-20 08:43:00,
2013-06-20 04:59:00,63.5,59.0,30.22,ESE,103,0.0,-999.0,86,-99.99,,,0.00,weatherlink.com 1.10,2013-06-20 08:59:00,
2013-06-20 05:14:00,63.4,59.0,30.22,ESE,103,0.0,-999.0,85,-99.99,,,0.00,weatherlink.com 1.10,2013-06-20 09:14:00,
2013-06-20 05:29:00,63.4,59.0,30.23,ESE,103,0.0,-999.0,86,-99.99,,,0.00,weatherlink.com 1.10,2013-06-20 09:29:00,
2013-06-20 05:44:00,63.5,59.0,30.25,ESE,103,0.0,-999.0,86,-99.99,,,0.00,weatherlink.com 1.10,2013-06-20 09:44:00,
2013-06-20 05:59:00,64.1,60.0,30.25,ESE,103,0.0,-999.0,86,-99.99,,,0.00,weatherlink.com 1.10,2013-06-20 09:59:00,
2013-06-20 06:14:00,64.3,60.0,30.25,ESE,103,0.0,-999.0,86,-99.99,,,0.00,weatherlink.com 1.10,2013-06-20 10:14:00,
2013-06-20 06:29:00,64.2,60.0,30.25,ESE,103,0.0,-999.0,86,-99.99,,,0.00,weatherlink.com 1.10,2013-06-20 10:29:00,
2013-06-20 06:44:00,64.3,60.0,30.25,ESE,103,0.0,-999.0,86,-99.99,,,0.00,weatherlink.com 1.10,2013-06-20 10:44:00,
2013-06-20 06:59:00,64.1,60.0,30.26,ESE,103,0.0,-999.0,85,-99.99,,,0.00,weatherlink.com 1.10,2013-06-20 10:59:00,
2013-06-20 07:14:00,64.7,61.0,30.27,South,188,0.0,-999.0,86,-99.99,,,0.00,weatherlink.com 1.10,2013-06-20 11:14:00,
2013-06-20 07:29:00,65.1,61.0,30.27,South,188,0.0,-999.0,85,-99.99,,,0.00,weatherlink.com 1.10,2013-06-20 11:29:00,
2013-06-20 07:44:00,65.3,61.0,30.27,South,188,0.0,-999.0,85,-99.99,,,0.00,weatherlink.com 1.10,2013-06-20 11:44:00,
2013-06-20 08:00:00,66.0,61.0,30.28,NW,315,0.0,-999.0,85,-99.99,,,0.00,weatherlink.com 1.10,2013-06-20 12:00:00,
2013-06-20 08:15:00,66.3,61.0,30.29,ENE,76,1.0,-999.0,84,-99.99,,,0.00,weatherlink.com 1.10,2013-06-20 12:15:00,
2013-06-20 08:30:00,66.6,62.0,30.29,ENE,73,0.0,-999.0,85,-99.99,,,0.00,weatherlink.com 1.10,2013-06-20 12:30:00,
2013-06-20 08:45:00,67.1,62.0,30.29,ENE,65,0.0,-999.0,84,-99.99,,,0.00,weatherlink.com 1.10,2013-06-20 12:45:00,
2013-06-20 09:00:00,67.1,62.0,30.30,ENE,69,1.0,-999.0,84,-99.99,,,0.00,weatherlink.com 1.10,2013-06-20 13:00:00,
2013-06-20 09:15:00,67.1,62.0,30.30,East,93,0.0,-999.0,83,-99.99,,,0.00,weatherlink.com 1.10,2013-06-20 13:15:00,
2013-06-20 09:31:00,67.5,62.0,30.30,ESE,103,1.0,-999.0,82,-99.99,,,0.00,weatherlink.com 1.10,2013-06-20 13:31:00,
2013-06-20 09:45:00,67.4,62.0,30.30,ENE,59,1.0,-999.0,82,-99.99,,,0.00,weatherlink.com 1.10,2013-06-20 13:45:00,
2013-06-20 10:00:00,67.8,62.0,30.30,ENE,57,2.0,-999.0,82,-99.99,,,0.00,weatherlink.com 1.10,2013-06-20 14:00:00,
2013-06-20 10:15:00,68.0,62.0,30.29,NNE,25,1.0,-999.0,81,-99.99,,,0.00,weatherlink.com 1.10,2013-06-20 14:15:00,
2013-06-20 10:31:00,69.7,63.0,30.30,WNW,292,0.0,-999.0,78,-99.99,,,0.00,weatherlink.com 1.10,2013-06-20 14:31:00,
2013-06-20 10:46:00,69.8,63.0,30.30,ENE,59,2.0,-999.0,79,-99.99,,,0.00,weatherlink.com 1.10,2013-06-20 14:46:00,
2013-06-20 11:01:00,70.4,63.0,30.30,ENE,59,0.0,-999.0,77,-99.99,,,0.00,weatherlink.com 1.10,2013-06-20 15:01:00,
2013-06-20 11:16:00,71.1,63.0,30.31,NE,55,0.0,-999.0,76,-99.99,,,0.00,weatherlink.com 1.10,2013-06-20 15:16:00,
2013-06-20 11:31:00,71.5,63.0,30.31,NE,55,1.0,-999.0,74,-99.99,,,0.00,weatherlink.com 1.10,2013-06-20 15:31:00,
2013-06-20 11:46:00,73.0,64.0,30.31,NE,53,0.0,-999.0,73,-99.99,,,0.00,weatherlink.com 1.10,2013-06-20 15:46:00,
2013-06-20 12:01:00,72.7,63.0,30.30,East,80,0.0,-999.0,72,-99.99,,,0.00,weatherlink.com 1.10,2013-06-20 16:01:00,
2013-06-20 12:16:00,73.8,63.0,30.30,East,93,4.0,-999.0,69,-99.99,,,0.00,weatherlink.com 1.10,2013-06-20 16:16:00,
2013-06-20 12:31:00,74.6,64.0,30.30,ENE,63,1.0,-999.0,69,-99.99,,,0.00,weatherlink.com 1.10,2013-06-20 16:31:00,
2013-06-20 12:46:00,74.4,64.0,30.31,ENE,72,0.0,-999.0,69,-99.99,,,0.00,weatherlink.com 1.10,2013-06-20 16:46:00,
2013-06-20 13:02:00,74.8,64.0,30.31,ENE,61,4.0,-999.0,69,-99.99,,,0.00,weatherlink.com 1.10,2013-06-20 17:02:00,
2013-06-20 13:17:00,75.1,64.0,30.31,East,80,0.0,-999.0,68,-99.99,,,0.00,weatherlink.com 1.10,2013-06-20 17:17:00,
2013-06-20 13:32:00,75.3,63.0,30.30,NE,55,0.0,-999.0,66,-99.99,,,0.00,weatherlink.com 1.10,2013-06-20 17:32:00,
2013-06-20 13:47:00,77.3,65.0,30.30,NE,53,2.0,-999.0,65,-99.99,,,0.00,weatherlink.com 1.10,2013-06-20 17:47:00,
2013-06-20 14:02:00,76.8,64.0,30.30,NE,55,2.0,-999.0,65,-99.99,,,0.00,weatherlink.com 1.10,2013-06-20 18:02:00,
2013-06-20 14:17:00,77.4,65.0,30.29,NNE,29,2.0,-999.0,66,-99.99,,,0.00,weatherlink.com 1.10,2013-06-20 18:17:00,
2013-06-20 14:32:00,77.8,62.0,30.29,ENE,74,2.0,-999.0,59,-99.99,,,0.00,weatherlink.com 1.10,2013-06-20 18:32:00,
2013-06-20 14:47:00,78.4,65.0,30.28,SSE,147,1.0,-999.0,64,-99.99,,,0.00,weatherlink.com 1.10,2013-06-20 18:47:00,
2013-06-20 15:02:00,77.1,64.0,30.28,NE,42,0.0,-999.0,65,-99.99,,,0.00,weatherlink.com 1.10,2013-06-20 19:02:00,
2013-06-20 15:17:00,78.1,64.0,30.27,East,81,4.0,-999.0,62,-99.99,,,0.00,weatherlink.com 1.10,2013-06-20 19:17:00,
2013-06-20 15:32:00,77.8,65.0,30.27,East,84,2.0,-999.0,64,-99.99,,,0.00,weatherlink.com 1.10,2013-06-20 19:32:00,
2013-06-20 15:47:00,79.8,65.0,30.27,East,83,7.0,-999.0,61,-99.99,,,0.00,weatherlink.com 1.10,2013-06-20 19:47:00,
2013-06-20 16:03:00,77.2,65.0,30.26,ESE,103,1.0,-999.0,65,-99.99,,,0.00,weatherlink.com 1.10,2013-06-20 20:03:00,
2013-06-20 16:18:00,80.1,64.0,30.26,NE,47,2.0,-999.0,59,-99.99,,,0.00,weatherlink.com 1.10,2013-06-20 20:18:00,
2013-06-20 16:33:00,76.2,64.0,30.26,ENE,57,0.0,-999.0,65,-99.99,,,0.00,weatherlink.com 1.10,2013-06-20 20:33:00,
2013-06-20 16:48:00,78.6,63.0,30.26,ENE,71,0.0,-999.0,60,-99.99,,,0.00,weatherlink.com 1.10,2013-06-20 20:48:00,
2013-06-20 17:03:00,76.8,64.0,30.25,SSE,158,0.0,-999.0,64,-99.99,,,0.00,weatherlink.com 1.10,2013-06-20 21:03:00,
2013-06-20 17:18:00,77.7,65.0,30.25,NE,51,0.0,-999.0,64,-99.99,,,0.00,weatherlink.com 1.10,2013-06-20 21:18:00,
2013-06-20 17:33:00,78.7,65.0,30.25,NE,39,2.0,-999.0,62,-99.99,,,0.00,weatherlink.com 1.10,2013-06-20 21:33:00,
2013-06-20 17:48:00,79.6,62.0,30.24,SSW,211,0.0,-999.0,56,-99.99,,,0.00,weatherlink.com 1.10,2013-06-20 21:48:00,
2013-06-20 18:03:00,77.6,63.0,30.24,ESE,103,0.0,-999.0,60,-99.99,,,0.00,weatherlink.com 1.10,2013-06-20 22:03:00,
2013-06-20 18:18:00,78.1,63.0,30.23,ENE,76,5.0,-999.0,60,-99.99,,,0.00,weatherlink.com 1.10,2013-06-20 22:18:00,
2013-06-20 18:33:00,77.8,63.0,30.24,ENE,74,0.0,-999.0,60,-99.99,,,0.00,weatherlink.com 1.10,2013-06-20 22:33:00,
2013-06-20 18:48:00,76.6,63.0,30.24,ESE,107,0.0,-999.0,63,-99.99,,,0.00,weatherlink.com 1.10,2013-06-20 22:48:00,
2013-06-20 19:04:00,75.6,63.0,30.24,ESE,113,0.0,-999.0,65,-99.99,,,0.00,weatherlink.com 1.10,2013-06-20 23:04:00,
2013-06-20 19:19:00,75.8,63.0,30.25,ESE,103,0.0,-999.0,64,-99.99,,,0.00,weatherlink.com 1.10,2013-06-20 23:19:00,
2013-06-20 19:34:00,74.8,63.0,30.25,NE,44,0.0,-999.0,67,-99.99,,,0.00,weatherlink.com 1.10,2013-06-20 23:34:00,
2013-06-20 19:49:00,73.8,63.0,30.25,East,80,0.0,-999.0,69,-99.99,,,0.00,weatherlink.com 1.10,2013-06-20 23:49:00,
2013-06-20 20:04:00,73.0,63.0,30.25,East,93,0.0,-999.0,72,-99.99,,,0.00,weatherlink.com 1.10,2013-06-21 00:04:00,
2013-06-20 20:19:00,71.9,63.0,30.25,East,98,0.0,-999.0,74,-99.99,,,0.00,weatherlink.com 1.10,2013-06-21 00:19:00,
2013-06-20 20:34:00,71.1,63.0,30.25,East,98,0.0,-999.0,76,-99.99,,,0.00,weatherlink.com 1.10,2013-06-21 00:34:00,
2013-06-20 20:49:00,70.1,63.0,30.25,East,98,0.0,-999.0,78,-99.99,,,0.00,weatherlink.com 1.10,2013-06-21 00:49:00,
2013-06-20 21:04:00,69.3,63.0,30.25,East,98,0.0,-999.0,79,-99.99,,,0.00,weatherlink.com 1.10,2013-06-21 01:04:00,
2013-06-20 21:19:00,68.8,62.0,30.26,East,98,0.0,-999.0,80,-99.99,,,0.00,weatherlink.com 1.10,2013-06-21 01:19:00,
2013-06-20 21:34:00,68.2,62.0,30.26,East,98,0.0,-999.0,81,-99.99,,,0.00,weatherlink.com 1.10,2013-06-21 01:34:00,
2013-06-20 21:49:00,67.8,62.0,30.27,East,98,0.0,-999.0,82,-99.99,,,0.00,weatherlink.com 1.10,2013-06-21 01:49:00,
2013-06-20 22:04:00,66.9,62.0,30.29,East,98,0.0,-999.0,83,-99.99,,,0.00,weatherlink.com 1.10,2013-06-21 02:04:00,
2013-06-20 22:20:00,66.8,62.0,30.29,East,98,0.0,-999.0,83,-99.99,,,0.00,weatherlink.com 1.10,2013-06-21 02:20:00,
2013-06-20 22:35:00,66.4,61.0,30.29,East,98,0.0,-999.0,83,-99.99,,,0.00,weatherlink.com 1.10,2013-06-21 02:35:00,
2013-06-20 22:50:00,66.1,61.0,30.30,East,98,0.0,-999.0,84,-99.99,,,0.00,weatherlink.com 1.10,2013-06-21 02:50:00,
2013-06-20 23:05:00,66.0,61.0,30.30,East,98,0.0,-999.0,84,-99.99,,,0.00,weatherlink.com 1.10,2013-06-21 03:05:00,
2013-06-20 23:20:00,65.5,61.0,30.30,East,98,0.0,-999.0,84,-99.99,,,0.00,weatherlink.com 1.10,2013-06-21 03:20:00,
2013-06-20 23:35:00,65.5,61.0,30.30,East,98,0.0,-999.0,84,-99.99,,,0.00,weatherlink.com 1.10,2013-06-21 03:35:00,
2013-06-20 23:50:00,65.4,61.0,30.30,East,98,0.0,-999.0,84,-99.99,,,0.00,weatherlink.com 1.10,2013-06-21 03:50:00,